Time;durP1;ratioP1;P1;durP2;ratioP2;P2;SDS_P1;SDS_P2;PMS_P1;PMS_P2;Temp;Humidity;BMP_temperature;BMP_pressure;BME280_temperature;BME280_humidity;BME280_pressure;Samples;Min_cycle;Max_cycle;Signal;HPM_P1;HPM_P2
2021/12/01 00:00:13;;;;;;;7.72;2.10;;;10.60;99.90;;;;;;6244810;23;20448;-88
2021/12/01 00:02:39;;;;;;;8.48;2.00;;;10.70;99.90;;;;;;6244909;23;20472;-89
2021/12/01 00:05:06;;;;;;;3.65;1.80;;;10.70;99.90;;;;;;6245064;23;20453;-89
2021/12/01 00:07:35;;;;;;;12.02;2.08;;;10.70;99.90;;;;;;6246352;22;20004;-89
2021/12/01 00:10:05;;;;;;;10.65;2.10;;;10.70;99.90;;;;;;6244848;23;20011;-89
2021/12/01 00:12:31;;;;;;;7.72;2.35;;;10.80;99.90;;;;;;6244811;23;20016;-87
2021/12/01 00:14:56;;;;;;;8.25;2.03;;;10.70;99.90;;;;;;6246065;22;20006;-88
2021/12/01 00:17:22;;;;;;;8.32;1.90;;;10.70;99.90;;;;;;6244513;23;20030;-88
2021/12/01 00:19:48;;;;;;;11.65;1.90;;;10.80;99.90;;;;;;6246654;23;20357;-88
2021/12/01 00:22:13;;;;;;;16.88;3.20;;;10.80;99.90;;;;;;6246323;23;20004;-88
2021/12/01 00:24:39;;;;;;;9.85;1.60;;;10.70;99.90;;;;;;6246238;23;20026;-88
2021/12/01 00:27:05;;;;;;;10.00;2.20;;;10.70;99.90;;;;;;6246081;23;19996;-88
2021/12/01 00:29:30;;;;;;;6.35;2.00;;;10.80;99.90;;;;;;6246227;23;20075;-87
2021/12/01 00:31:56;;;;;;;9.15;1.77;;;10.80;99.90;;;;;;6244294;23;20016;-89
2021/12/01 00:34:22;;;;;;;7.93;1.92;;;10.90;99.90;;;;;;6244869;23;20078;-88
2021/12/01 00:36:48;;;;;;;10.70;1.80;;;10.80;99.90;;;;;;6245365;23;20095;-88
2021/12/01 00:39:13;;;;;;;14.25;2.03;;;10.80;99.90;;;;;;6245992;23;20004;-87
2021/12/01 00:41:39;;;;;;;7.00;2.40;;;10.80;99.90;;;;;;6245964;23;20058;-87
2021/12/01 00:44:07;;;;;;;11.55;2.38;;;10.80;99.90;;;;;;6245780;23;20038;-88
2021/12/01 00:46:40;;;;;;;10.00;2.00;;;10.70;99.90;;;;;;6244408;23;20004;-88
2021/12/01 00:49:06;;;;;;;7.93;2.00;;;10.70;99.90;;;;;;6244505;23;20016;-87
2021/12/01 00:51:32;;;;;;;8.93;2.15;;;10.70;99.90;;;;;;6245872;22;20035;-87
2021/12/01 00:53:58;;;;;;;8.00;1.90;;;10.70;99.90;;;;;;6244528;23;20004;-88
2021/12/01 00:56:23;;;;;;;15.23;2.45;;;10.80;99.90;;;;;;6244135;23;20516;-88
2021/12/01 00:58:51;;;;;;;9.65;2.35;;;10.70;99.90;;;;;;6244726;23;20345;-88
2021/12/01 01:01:17;;;;;;;9.75;1.95;;;10.80;99.90;;;;;;6244189;23;20000;-88
2021/12/01 01:03:43;;;;;;;14.20;2.20;;;10.80;99.90;;;;;;6244507;23;20015;-88
2021/12/01 01:06:08;;;;;;;6.43;1.80;;;10.80;99.90;;;;;;6245875;22;20001;-87
2021/12/01 01:08:34;;;;;;;9.00;2.33;;;10.80;99.90;;;;;;6244079;23;20385;-87
2021/12/01 01:16:25;;;;;;;12.98;2.28;;;10.80;99.90;;;;;;6245649;23;20431;-88
2021/12/01 01:18:58;;;;;;;;;;;10.80;99.90;;;;;;6245044;23;20008;-87
2021/12/01 01:21:27;;;;;;;15.35;1.90;;;10.90;99.90;;;;;;6244269;23;19974;-88
2021/12/01 01:23:53;;;;;;;13.88;2.13;;;10.90;99.90;;;;;;6244915;23;20094;-88
2021/12/01 01:26:20;;;;;;;8.75;2.00;;;10.90;99.90;;;;;;6244630;23;20004;-87
2021/12/01 01:28:46;;;;;;;12.55;2.38;;;10.80;99.90;;;;;;6244123;23;20090;-87
2021/12/01 01:31:13;;;;;;;10.48;2.00;;;10.90;99.90;;;;;;6245489;23;20380;-87
2021/12/01 01:33:40;;;;;;;8.02;1.77;;;10.80;99.90;;;;;;6243947;23;20072;-89
2021/12/01 01:36:06;;;;;;;10.73;2.33;;;10.80;99.90;;;;;;6244105;23;20010;-89
2021/12/01 01:38:32;;;;;;;13.35;2.05;;;10.80;99.90;;;;;;6244029;23;20011;-88
2021/12/01 01:41:04;;;;;;;15.90;2.65;;;10.90;99.90;;;;;;6244400;23;20005;-89
2021/12/01 01:43:29;;;;;;;5.75;2.00;;;10.80;99.90;;;;;;6244135;23;20466;-89
2021/12/01 01:45:57;;;;;;;13.55;2.38;;;10.90;99.90;;;;;;6244034;23;20087;-89
2021/12/01 01:48:31;;;;;;;8.35;2.28;;;10.90;99.90;;;;;;6244597;23;20341;-89
2021/12/01 01:51:02;;;;;;;10.05;1.85;;;10.80;99.90;;;;;;6244119;23;20004;-88
2021/12/01 01:53:28;;;;;;;13.35;1.98;;;10.80;99.90;;;;;;6243780;23;20270;-88
2021/12/01 01:55:58;;;;;;;10.38;2.15;;;10.90;99.90;;;;;;6244364;23;20117;-88
2021/12/01 01:58:26;;;;;;;6.47;1.70;;;11.00;99.90;;;;;;6244053;23;20036;-88
2021/12/01 02:03:48;;;;;;;4.35;1.60;;;11.00;99.90;;;;;;6202388;22;20058;-88
2021/12/01 02:06:22;;;;;;;7.88;1.73;;;11.00;99.90;;;;;;6245367;22;20004;-87
2021/12/01 02:08:47;;;;;;;5.55;1.50;;;11.00;99.90;;;;;;6243911;23;20014;-88
2021/12/01 02:11:13;;;;;;;6.13;1.27;;;11.00;99.90;;;;;;6243355;23;20087;-88
2021/12/01 02:13:41;;;;;;;5.88;1.42;;;11.00;99.90;;;;;;6243536;23;20012;-88
2021/12/01 02:16:07;;;;;;;7.75;1.45;;;11.00;99.90;;;;;;6243350;23;20003;-88
2021/12/01 02:18:33;;;;;;;4.70;1.65;;;11.00;99.90;;;;;;6243590;23;20389;-88
2021/12/01 02:20:59;;;;;;;5.63;1.40;;;11.00;99.90;;;;;;6243559;23;20000;-87
2021/12/01 02:23:26;;;;;;;6.90;1.40;;;11.10;99.90;;;;;;6243786;23;20091;-88
2021/12/01 02:25:52;;;;;;;5.70;1.48;;;11.10;99.90;;;;;;6245226;22;20027;-88
2021/12/01 02:28:18;;;;;;;4.93;1.67;;;11.10;99.90;;;;;;6244775;22;20000;-88
2021/12/01 02:30:43;;;;;;;6.50;1.60;;;11.10;99.90;;;;;;6244777;22;20030;-89
2021/12/01 02:33:09;;;;;;;5.35;1.52;;;11.10;99.90;;;;;;6243440;23;20424;-88
2021/12/01 02:35:35;;;;;;;4.38;1.70;;;11.10;99.90;;;;;;6244766;23;20168;-88
2021/12/01 02:38:03;;;;;;;5.25;1.42;;;11.10;99.90;;;;;;6243079;23;20019;-87
2021/12/01 02:40:29;;;;;;;9.25;1.85;;;11.20;99.90;;;;;;6243009;23;20012;-88
2021/12/01 02:42:54;;;;;;;4.07;1.30;;;11.20;99.90;;;;;;6243220;23;20059;-88
2021/12/01 02:45:20;;;;;;;3.40;1.38;;;11.20;99.90;;;;;;6242951;23;20007;-87
2021/12/01 02:47:46;;;;;;;6.53;1.33;;;11.20;99.90;;;;;;6243177;23;20083;-87
2021/12/01 02:50:12;;;;;;;6.55;1.75;;;11.20;99.90;;;;;;6242968;23;20349;-87
2021/12/01 02:52:37;;;;;;;8.10;1.50;;;11.20;99.90;;;;;;6243107;23;20019;-88
2021/12/01 02:55:05;;;;;;;5.03;1.20;;;11.30;99.90;;;;;;6242960;23;20007;-87
2021/12/01 02:57:49;;;;;;;8.57;1.23;;;11.20;99.90;;;;;;6244582;22;20083;-88
2021/12/01 03:00:17;;;;;;;3.75;1.10;;;11.30;99.90;;;;;;6242993;23;20004;-88
2021/12/01 03:02:44;;;;;;;2.03;1.27;;;11.30;99.90;;;;;;6244766;22;20000;-87
2021/12/01 03:05:09;;;;;;;6.45;1.42;;;11.30;99.90;;;;;;6243192;23;20298;-88
2021/12/01 03:07:36;;;;;;;4.35;1.40;;;11.20;99.90;;;;;;6244398;23;20035;-88
2021/12/01 03:10:02;;;;;;;3.15;1.23;;;11.20;99.90;;;;;;6242823;23;20008;-88
2021/12/01 03:12:30;;;;;;;3.15;1.10;;;11.20;99.90;;;;;;6244568;22;20004;-87
2021/12/01 03:14:56;;;;;;;2.17;1.10;;;11.30;99.90;;;;;;6243336;23;20032;-88
2021/12/01 03:17:26;;;;;;;2.70;0.95;;;11.40;99.90;;;;;;6243154;23;20512;-88
2021/12/01 03:19:51;;;;;;;4.85;1.33;;;11.40;99.90;;;;;;6244478;22;20076;-89
2021/12/01 03:22:17;;;;;;;6.32;1.30;;;11.40;99.90;;;;;;6244747;23;20028;-88
2021/12/01 03:24:43;;;;;;;7.07;1.20;;;11.40;99.90;;;;;;6242785;23;20000;-89
2021/12/01 03:27:08;;;;;;;2.55;1.10;;;11.30;99.90;;;;;;6243349;23;20004;-88
2021/12/01 03:29:34;;;;;;;5.15;1.23;;;11.20;99.90;;;;;;6243223;23;20090;-88
2021/12/01 03:32:00;;;;;;;3.63;1.20;;;11.20;99.90;;;;;;6242972;23;20019;-88
2021/12/01 03:34:25;;;;;;;4.65;1.35;;;11.30;99.90;;;;;;6243274;23;20011;-89
2021/12/01 03:36:51;;;;;;;2.17;1.00;;;11.30;99.90;;;;;;6244466;22;19996;-89
2021/12/01 03:39:17;;;;;;;1.95;0.85;;;11.40;99.90;;;;;;6242718;23;20035;-87
2021/12/01 03:41:43;;;;;;;1.45;0.80;;;11.40;99.90;;;;;;6242893;23;20019;-89
2021/12/01 03:44:09;;;;;;;1.58;0.85;;;11.40;99.90;;;;;;6244710;23;20001;-90
2021/12/01 03:46:35;;;;;;;3.00;0.90;;;11.50;99.90;;;;;;6242901;23;20011;-89
2021/12/01 03:49:00;;;;;;;2.33;0.70;;;12.30;99.90;;;;;;6242724;23;20044;-87
2021/12/01 03:51:26;;;;;;;2.88;0.80;;;11.60;99.90;;;;;;6244918;23;20028;-89
2021/12/01 03:53:52;;;;;;;1.85;0.77;;;11.60;99.90;;;;;;6243451;23;20012;-88
2021/12/01 03:56:19;;;;;;;2.05;0.90;;;11.50;99.90;;;;;;6243092;23;20314;-88
2021/12/01 03:58:46;;;;;;;1.65;0.80;;;11.60;99.90;;;;;;6243083;23;20008;-88
2021/12/01 04:01:12;;;;;;;0.60;0.60;;;11.60;99.90;;;;;;6243218;23;20005;-91
2021/12/01 04:03:38;;;;;;;3.88;0.80;;;11.60;99.90;;;;;;6242916;23;20306;-89
2021/12/01 04:06:04;;;;;;;1.50;0.85;;;11.60;99.90;;;;;;6243153;23;20000;-90
2021/12/01 04:08:30;;;;;;;3.15;0.80;;;11.60;99.90;;;;;;6243562;23;20015;-88
2021/12/01 04:10:56;;;;;;;3.35;1.10;;;11.80;99.90;;;;;;6243228;23;20004;-88
2021/12/01 04:13:21;;;;;;;1.10;1.00;;;11.60;99.90;;;;;;6243502;23;20047;-88
2021/12/01 04:15:47;;;;;;;5.68;1.00;;;11.70;99.90;;;;;;6243046;23;20008;-91
2021/12/01 04:18:13;;;;;;;5.50;1.15;;;11.70;99.90;;;;;;6244851;23;20062;-89
2021/12/01 04:20:51;;;;;;;1.50;1.40;;;11.90;99.90;;;;;;6243729;23;20008;-92
2021/12/01 04:23:17;;;;;;;1.48;1.30;;;12.00;99.90;;;;;;6243176;23;20004;-90
2021/12/01 04:25:43;;;;;;;2.25;1.23;;;12.00;99.90;;;;;;6243537;23;20004;-90
2021/12/01 04:28:09;;;;;;;1.13;1.10;;;12.10;99.90;;;;;;6243514;23;20318;-91
2021/12/01 04:30:34;;;;;;;2.45;1.20;;;12.00;99.90;;;;;;6243545;23;20014;-90
2021/12/01 04:33:00;;;;;;;7.30;1.00;;;12.00;99.90;;;;;;6243621;23;20127;-90
2021/12/01 04:35:27;;;;;;;4.28;0.90;;;12.00;99.90;;;;;;6243673;23;20004;-91
2021/12/01 04:37:54;;;;;;;1.63;0.75;;;12.00;99.90;;;;;;6245324;23;20015;-91
2021/12/01 04:40:20;;;;;;;6.28;1.00;;;12.00;99.90;;;;;;6245335;23;20110;-90
2021/12/01 04:42:54;;;;;;;1.60;0.90;;;12.00;99.90;;;;;;6246149;23;20008;-92
2021/12/01 04:45:21;;;;;;;4.13;1.00;;;12.00;99.90;;;;;;6245419;23;20000;-91
2021/12/01 04:47:58;;;;;;;5.60;1.40;;;11.80;99.90;;;;;;6241272;23;20026;-89
2021/12/01 04:50:57;;;;;;;3.80;1.50;;;11.70;99.90;;;;;;6241941;23;20028;-92
2021/12/01 04:53:38;;;;;;;;;;;;;;;;;;;;;
2021/12/01 04:56:55;;;;;;;;;;;;;;;;;;;;;
2021/12/01 05:00:04;;;;;;;4.50;0.80;;;11.80;99.90;;;;;;6246292;23;20091;-90
2021/12/01 05:02:35;;;;;;;4.07;1.42;;;11.40;99.90;;;;;;6217380;23;20004;-91
2021/12/01 05:05:32;;;;;;;13.13;1.60;;;11.40;99.90;;;;;;6244728;23;20066;-90
2021/12/01 05:08:10;;;;;;;;;;;;;;;;;;;;;
2021/12/01 05:10:39;;;;;;;;;;;11.30;99.90;;;;;;6246201;23;20075;-92
2021/12/01 05:13:13;;;;;;;4.35;1.30;;;11.20;99.90;;;;;;6244600;23;19912;-91
2021/12/01 05:15:41;;;;;;;12.63;1.70;;;11.20;99.90;;;;;;6244383;23;20387;-91
2021/12/01 05:18:09;;;;;;;11.93;2.05;;;11.10;99.90;;;;;;6244504;23;20008;-91
2021/12/01 05:20:35;;;;;;;;;;;11.00;99.90;;;;;;6245050;23;20008;-90
2021/12/01 05:23:01;;;;;;;11.98;1.80;;;10.90;99.90;;;;;;6244693;23;19921;-91
2021/12/01 05:25:44;;;;;;;17.20;2.72;;;10.90;99.90;;;;;;6247289;23;20580;-91
2021/12/01 05:28:26;;;;;;;25.08;2.10;;;10.80;99.90;;;;;;6244896;23;20008;-92
2021/12/01 05:30:55;;;;;;;19.95;3.00;;;10.70;99.90;;;;;;6244630;23;20004;-91
2021/12/01 05:33:39;;;;;;;;;;;;;;;;;;;;;
2021/12/01 05:36:35;;;;;;;18.30;2.40;;;10.70;99.90;;;;;;6247067;23;20091;-93
2021/12/01 05:45:29;;;;;;;14.43;1.90;;;10.80;99.90;;;;;;6094887;23;20008;-92
2021/12/01 05:48:00;;;;;;;9.57;1.58;;;10.80;99.90;;;;;;6072118;23;20018;-91
2021/12/01 06:13:07;;;;;;;31.50;3.80;;;10.40;99.90;;;;;;5873858;24;20126;-94
2021/12/01 06:20:55;;;;;;;31.83;3.50;;;10.30;99.90;;;;;;6291454;22;20026;-93
2021/12/01 06:24:11;;;;;;;;;;;;;;;;;;;;;
2021/12/01 06:26:50;;;;;;;32.00;3.38;;;10.30;99.90;;;;;;6236028;22;20078;-92
2021/12/01 06:29:56;;;;;;;;;;;;;;;;;;;;;
2021/12/01 06:32:42;;;;;;;21.75;3.03;;;10.10;99.90;;;;;;6309687;22;20434;-90
2021/12/01 06:35:34;;;;;;;37.20;3.78;;;10.20;99.90;;;;;;6307520;22;20039;-91
2021/12/01 06:38:47;;;;;;;;;;;;;;;;;;;;;
2021/12/01 06:41:33;;;;;;;30.65;3.85;;;10.00;99.90;;;;;;6281395;22;20082;-93
2021/12/01 06:55:27;;;;;;;;;;;;;;;;;;;;;
2021/12/01 07:15:12;;;;;;;36.20;4.05;;;9.70;99.90;;;;;;5110019;27;20388;-92
2021/12/01 07:17:38;;;;;;;29.52;5.15;;;9.70;99.90;;;;;;5110495;28;20020;-93
2021/12/01 07:20:06;;;;;;;32.35;4.63;;;9.60;99.90;;;;;;5108946;28;20081;-92
2021/12/01 07:22:32;;;;;;;43.83;4.28;;;9.60;99.90;;;;;;5108609;28;20020;-93
2021/12/01 07:24:58;;;;;;;53.90;5.00;;;9.60;99.90;;;;;;5110030;28;20039;-92
2021/12/01 07:27:23;;;;;;;50.20;5.97;;;9.60;99.90;;;;;;5110074;28;20020;-92
2021/12/01 07:29:49;;;;;;;49.88;5.55;;;9.60;99.90;;;;;;5108671;28;20028;-90
2021/12/01 07:32:15;;;;;;;46.60;5.20;;;9.60;99.90;;;;;;5109133;28;20030;-91
2021/12/01 07:34:42;;;;;;;47.95;4.50;;;9.60;99.90;;;;;;5108655;28;20114;-92
2021/12/01 07:37:17;;;;;;;52.65;6.13;;;9.60;99.90;;;;;;5108848;28;20028;-90
2021/12/01 07:39:43;;;;;;;35.17;4.95;;;9.50;99.90;;;;;;5108560;28;20028;-90
2021/12/01 07:42:10;;;;;;;49.65;5.35;;;9.50;99.90;;;;;;5112680;28;20484;-90
2021/12/01 07:44:36;;;;;;;49.80;5.55;;;9.50;99.90;;;;;;5112559;28;20474;-90
2021/12/01 07:47:02;;;;;;;55.35;5.30;;;9.60;99.90;;;;;;5117340;28;20056;-91
2021/12/01 07:49:28;;;;;;;41.08;4.95;;;9.50;99.90;;;;;;5109304;28;20111;-92
2021/12/01 07:51:54;;;;;;;52.60;5.63;;;9.50;99.90;;;;;;5108266;28;20032;-91
2021/12/01 07:54:20;;;;;;;45.83;5.70;;;9.60;99.90;;;;;;5108205;28;20381;-92
2021/12/01 07:56:49;;;;;;;40.45;4.70;;;9.60;99.90;;;;;;5109462;28;20028;-91
2021/12/01 07:59:15;;;;;;;45.40;4.85;;;9.60;99.90;;;;;;5108080;28;20023;-92
2021/12/01 08:01:45;;;;;;;36.97;4.93;;;9.70;99.90;;;;;;5108208;28;20407;-91
2021/12/01 08:04:11;;;;;;;45.70;4.80;;;9.80;99.90;;;;;;5109491;28;20104;-93
2021/12/01 08:06:38;;;;;;;41.40;5.13;;;9.70;99.90;;;;;;5108218;28;20024;-90
2021/12/01 08:09:05;;;;;;;52.80;5.75;;;9.80;99.90;;;;;;5108822;28;20023;-90
2021/12/01 08:11:31;;;;;;;50.67;4.95;;;9.80;99.90;;;;;;5107716;28;20051;-91
2021/12/01 08:13:57;;;;;;;46.40;5.13;;;9.70;99.90;;;;;;5106619;28;20038;-92
2021/12/01 08:16:22;;;;;;;39.22;3.95;;;9.70;99.90;;;;;;5093742;28;20031;-90
2021/12/01 08:18:53;;;;;;;51.25;4.13;;;9.70;99.90;;;;;;5094096;28;20065;-91
2021/12/01 08:21:19;;;;;;;50.55;5.50;;;9.70;99.90;;;;;;5093779;28;20037;-89
2021/12/01 08:23:45;;;;;;;57.13;6.22;;;9.70;99.90;;;;;;5094089;28;20028;-91
2021/12/01 08:26:11;;;;;;;47.13;5.53;;;9.60;99.90;;;;;;5094134;28;20092;-89
2021/12/01 08:28:37;;;;;;;46.55;5.53;;;9.60;99.90;;;;;;5093768;28;20493;-91
2021/12/01 08:31:03;;;;;;;38.00;5.78;;;9.60;99.90;;;;;;5093820;28;20063;-91
2021/12/01 08:33:29;;;;;;;41.75;4.57;;;9.60;99.90;;;;;;5093813;28;20061;-90
2021/12/01 08:35:54;;;;;;;44.67;5.55;;;9.70;99.90;;;;;;5093689;28;20062;-90
2021/12/01 08:38:20;;;;;;;53.70;5.00;;;9.70;99.90;;;;;;5094770;28;20028;-91
2021/12/01 08:40:47;;;;;;;43.15;5.05;;;9.70;99.90;;;;;;5093459;28;20491;-89
2021/12/01 08:43:12;;;;;;;45.00;5.03;;;9.70;99.90;;;;;;5093551;28;20039;-91
2021/12/01 08:45:38;;;;;;;33.75;5.38;;;9.70;99.90;;;;;;5093395;28;20020;-89
2021/12/01 08:48:05;;;;;;;47.72;4.70;;;9.70;99.90;;;;;;5093285;28;20032;-89
2021/12/01 08:50:31;;;;;;;45.42;5.68;;;9.70;99.90;;;;;;5093160;28;20039;-89
2021/12/01 08:52:58;;;;;;;42.00;5.88;;;9.70;99.90;;;;;;5093050;28;20026;-90
2021/12/01 08:55:24;;;;;;;44.92;5.32;;;9.70;99.90;;;;;;5092980;28;20415;-91
2021/12/01 08:57:50;;;;;;;56.88;7.53;;;9.70;99.90;;;;;;5092968;28;20028;-91
2021/12/01 09:00:19;;;;;;;46.80;5.05;;;9.80;99.90;;;;;;5092984;28;20032;-89
2021/12/01 09:02:44;;;;;;;42.92;5.10;;;9.90;99.90;;;;;;5094392;28;20024;-90
2021/12/01 09:05:10;;;;;;;42.97;4.47;;;9.90;99.90;;;;;;5094302;28;20408;-89
2021/12/01 09:07:36;;;;;;;51.40;5.18;;;10.00;99.90;;;;;;5092923;28;20017;-91
2021/12/01 09:10:02;;;;;;;50.30;7.43;;;10.00;99.90;;;;;;5092824;28;20089;-90
2021/12/01 09:12:28;;;;;;;58.75;6.80;;;10.00;99.90;;;;;;5093900;28;20095;-90
2021/12/01 09:14:56;;;;;;;65.30;6.78;;;10.00;99.90;;;;;;5092362;28;20158;-89
2021/12/01 09:17:23;;;;;;;58.50;8.60;;;10.00;99.90;;;;;;5092637;28;20507;-89
2021/12/01 09:19:49;;;;;;;53.85;7.00;;;9.90;99.90;;;;;;5092682;28;20051;-90
2021/12/01 09:22:16;;;;;;;55.33;7.20;;;9.90;99.90;;;;;;5092828;28;20024;-89
2021/12/01 09:24:43;;;;;;;42.88;5.75;;;9.90;99.90;;;;;;5092680;28;20036;-89
2021/12/01 09:27:09;;;;;;;42.67;5.30;;;9.90;99.90;;;;;;5091501;28;20533;-91
2021/12/01 09:29:35;;;;;;;55.78;5.90;;;9.90;99.90;;;;;;5092417;28;20551;-89
2021/12/01 09:32:02;;;;;;;59.50;5.63;;;9.90;99.90;;;;;;5092740;28;20111;-89
2021/12/01 09:34:28;;;;;;;54.05;5.97;;;10.00;99.90;;;;;;5093774;28;20115;-90
2021/12/01 09:36:57;;;;;;;45.45;6.13;;;9.90;99.90;;;;;;5092400;28;20115;-91
2021/12/01 09:39:23;;;;;;;45.85;6.45;;;9.90;99.90;;;;;;5092515;28;20090;-90
2021/12/01 09:41:49;;;;;;;54.72;6.47;;;9.90;99.90;;;;;;5092310;28;20036;-90
2021/12/01 09:44:15;;;;;;;40.35;4.72;;;9.90;99.90;;;;;;5092697;28;20032;-91
2021/12/01 09:46:41;;;;;;;58.10;6.00;;;9.90;99.90;;;;;;5092585;28;20249;-90
2021/12/01 09:49:07;;;;;;;53.33;4.95;;;10.00;99.90;;;;;;5092382;28;20024;-91
2021/12/01 09:51:33;;;;;;;34.95;4.47;;;10.00;99.90;;;;;;5092389;28;20020;-89
2021/12/01 09:54:00;;;;;;;42.28;4.72;;;10.10;99.90;;;;;;5092204;28;20020;-92
2021/12/01 09:56:27;;;;;;;33.42;5.38;;;10.10;99.90;;;;;;5092101;28;20403;-91
2021/12/01 09:58:53;;;;;;;32.35;4.15;;;10.20;99.90;;;;;;5092058;28;20082;-90
2021/12/01 10:01:21;;;;;;;34.40;4.18;;;10.20;99.90;;;;;;5093363;28;20034;-92
2021/12/01 10:03:48;;;;;;;42.08;4.75;;;10.30;99.90;;;;;;5093502;28;20492;-91
2021/12/01 10:06:20;;;;;;;31.80;3.60;;;10.40;99.90;;;;;;5092196;28;20032;-91
2021/12/01 10:08:53;;;;;;;38.40;4.15;;;10.50;99.90;;;;;;5092458;28;20039;-90
2021/12/01 10:11:36;;;;;;;41.63;4.78;;;10.60;99.90;;;;;;5092751;28;20020;-90
2021/12/01 10:14:15;;;;;;;36.13;4.25;;;10.60;99.90;;;;;;5097823;28;20039;-90
2021/12/01 10:16:43;;;;;;;34.40;3.92;;;10.50;99.90;;;;;;5094899;28;20074;-91
2021/12/01 10:19:11;;;;;;;39.35;4.10;;;10.40;99.90;;;;;;5093809;28;20369;-91
2021/12/01 10:21:46;;;;;;;28.98;3.47;;;10.20;99.90;;;;;;5091769;28;20036;-91
2021/12/01 10:24:18;;;;;;;33.40;3.50;;;9.80;99.90;;;;;;5091544;28;20081;-91
2021/12/01 10:27:06;;;;;;;34.88;3.85;;;9.60;99.90;;;;;;5092180;28;20035;-91
2021/12/01 10:29:39;;;;;;;23.40;3.28;;;9.50;99.90;;;;;;5060951;28;20074;-89
2021/12/01 10:32:07;;;;;;;34.80;3.28;;;9.40;99.90;;;;;;5091625;28;20392;-92
2021/12/01 10:34:40;;;;;;;22.77;2.80;;;9.40;99.90;;;;;;5091847;28;20023;-92
2021/12/01 10:37:25;;;;;;;40.00;4.68;;;9.40;99.90;;;;;;5091459;28;20028;-90
2021/12/01 10:40:23;;;;;;;30.48;4.25;;;9.40;99.90;;;;;;5091305;28;20020;-90
2021/12/01 10:42:52;;;;;;;50.17;3.20;;;9.40;99.90;;;;;;5091490;28;20097;-91
2021/12/01 10:45:20;;;;;;;24.95;2.97;;;9.40;99.90;;;;;;5092921;28;20035;-91
2021/12/01 10:47:46;;;;;;;42.08;3.95;;;9.30;99.90;;;;;;5091587;28;20122;-91
2021/12/01 10:50:17;;;;;;;37.55;4.00;;;9.30;99.90;;;;;;5091348;28;20118;-90
2021/12/01 10:52:51;;;;;;;24.95;3.92;;;9.40;99.90;;;;;;5092488;28;20035;-91
2021/12/01 10:55:24;;;;;;;35.50;5.65;;;9.40;99.90;;;;;;5092537;28;20027;-89
2021/12/01 10:57:57;;;;;;;40.15;3.85;;;9.50;99.90;;;;;;5091512;28;20024;-90
2021/12/01 11:00:29;;;;;;;30.58;3.85;;;9.60;99.90;;;;;;5091255;28;20074;-92
2021/12/01 11:03:17;;;;;;;32.83;4.35;;;9.60;99.90;;;;;;5091185;28;20036;-91
2021/12/01 11:06:08;;;;;;;32.70;4.00;;;9.70;99.90;;;;;;5092245;28;20070;-90
2021/12/01 11:08:37;;;;;;;34.30;4.25;;;9.90;99.90;;;;;;5090925;28;20028;-90
2021/12/01 11:11:10;;;;;;;51.33;4.90;;;9.90;99.90;;;;;;5092411;28;20076;-91
2021/12/01 11:13:38;;;;;;;39.30;4.20;;;10.00;99.90;;;;;;5090892;28;20490;-91
2021/12/01 11:16:10;;;;;;;;;;;10.20;99.90;;;;;;5091849;28;20048;-92
2021/12/01 11:18:43;;;;;;;49.45;5.20;;;10.30;99.90;;;;;;5090867;28;19911;-89
2021/12/01 11:21:10;;;;;;;58.83;4.82;;;10.50;99.90;;;;;;5090824;28;20020;-90
2021/12/01 11:23:39;;;;;;;36.58;5.18;;;10.60;99.90;;;;;;5090717;28;20040;-90
2021/12/01 11:26:11;;;;;;;43.97;4.38;;;10.80;99.90;;;;;;5090563;28;20020;-90
2021/12/01 11:28:47;;;;;;;37.72;4.72;;;10.70;99.90;;;;;;5091900;28;20036;-91
2021/12/01 11:31:20;;;;;;;30.65;3.20;;;10.70;99.90;;;;;;5090806;28;20024;-91
2021/12/01 11:33:48;;;;;;;32.45;3.85;;;10.40;99.90;;;;;;5090856;28;20032;-90
2021/12/01 11:36:18;;;;;;;30.58;4.15;;;10.20;99.90;;;;;;5090754;28;20020;-89
2021/12/01 11:38:53;;;;;;;24.27;3.80;;;10.00;99.90;;;;;;5091870;28;20517;-90
2021/12/01 11:41:19;;;;;;;29.10;4.05;;;9.80;99.90;;;;;;5090912;28;20046;-90
2021/12/01 11:43:46;;;;;;;34.45;4.32;;;9.70;99.90;;;;;;5090411;28;20032;-90
2021/12/01 11:46:14;;;;;;;32.97;4.30;;;9.70;99.90;;;;;;5090718;28;20034;-91
2021/12/01 11:49:12;;;;;;;28.42;3.75;;;9.80;99.90;;;;;;5091123;28;20390;-93
2021/12/01 11:51:51;;;;;;;;;;;;;;;;;;;;;
2021/12/01 11:54:20;;;;;;;35.08;4.85;;;10.00;99.90;;;;;;5079057;28;20027;-90
2021/12/01 11:56:59;;;;;;;41.08;3.92;;;9.90;99.90;;;;;;5083403;28;20027;-92
2021/12/01 11:59:38;;;;;;;28.48;3.60;;;9.80;99.90;;;;;;5085221;28;20020;-91
2021/12/01 12:02:26;;;;;;;44.88;4.60;;;9.80;99.90;;;;;;5085977;28;20479;-92
2021/12/01 12:05:27;;;;;;;;;;;;;;;;;;;;;
2021/12/01 12:08:07;;;;;;;34.80;4.18;;;9.70;99.90;;;;;;5082869;28;20020;-91
2021/12/01 12:10:43;;;;;;;32.88;4.05;;;9.70;99.90;;;;;;5081748;28;20025;-92
2021/12/01 12:13:26;;;;;;;24.63;3.03;;;9.50;99.90;;;;;;5081757;28;20028;-89
2021/12/01 12:15:54;;;;;;;32.10;3.90;;;9.30;99.90;;;;;;5085135;28;20036;-93
2021/12/01 12:18:47;;;;;;;21.48;3.88;;;9.20;99.90;;;;;;5083143;28;20020;-92
2021/12/01 12:21:38;;;;;;;38.58;3.83;;;9.10;99.90;;;;;;5084621;28;20020;-91
2021/12/01 12:24:06;;;;;;;38.85;5.90;;;9.10;99.90;;;;;;5084467;28;20028;-93
2021/12/01 12:26:44;;;;;;;25.13;3.70;;;9.10;99.90;;;;;;5083087;28;20042;-91
2021/12/01 12:29:24;;;;;;;33.83;4.10;;;9.10;99.90;;;;;;5083948;28;20024;-90
2021/12/01 12:31:58;;;;;;;38.15;4.05;;;9.20;99.90;;;;;;5083396;28;20027;-92
2021/12/01 12:34:47;;;;;;;34.03;4.43;;;9.30;99.90;;;;;;5078414;28;20032;-93
2021/12/01 12:37:49;;;;;;;27.77;4.68;;;9.20;99.90;;;;;;5083186;28;20032;-93
2021/12/01 12:40:20;;;;;;;25.13;3.80;;;9.20;99.90;;;;;;5081948;28;20028;-92
2021/12/01 12:43:12;;;;;;;21.85;3.20;;;9.30;99.90;;;;;;5083270;28;20033;-92
2021/12/01 12:45:46;;;;;;;20.85;3.50;;;8.90;99.90;;;;;;5082366;28;20029;-93
2021/12/01 12:48:39;;;;;;;19.05;3.78;;;8.90;99.90;;;;;;5085470;28;20028;-93
2021/12/01 12:51:28;;;;;;;;;;;;;;;;;;;;;
2021/12/01 12:54:21;;;;;;;16.38;2.92;;;8.70;99.90;;;;;;5084287;28;20024;-92
2021/12/01 12:57:19;;;;;;;;;;;;;;;;;;;;;
2021/12/01 13:00:23;;;;;;;33.03;7.47;;;8.70;99.90;;;;;;5083409;28;20415;-92
2021/12/01 13:03:24;;;;;;;23.55;6.15;;;8.70;99.90;;;;;;5085392;28;20043;-92
2021/12/01 13:06:27;;;;;;;24.52;4.80;;;8.80;99.90;;;;;;5082114;28;20039;-92
2021/12/01 13:12:06;;;;;;;24.20;2.90;;;9.00;99.90;;;;;;5089802;28;20028;-93
2021/12/01 13:14:48;;;;;;;32.97;7.22;;;8.90;99.90;;;;;;5084588;28;20028;-94
2021/12/01 13:17:22;;;;;;;23.65;4.80;;;9.00;99.90;;;;;;5072836;28;20024;-94
2021/12/01 13:20:00;;;;;;;;;;;;;;;;;;;;;
2021/12/01 13:22:52;;;;;;;26.00;4.50;;;9.10;99.90;;;;;;5074373;28;20013;-94
2021/12/01 13:25:27;;;;;;;;;;;;;;;;;;;;;
2021/12/01 13:28:06;;;;;;;;;;;;;;;;;;;;;
2021/12/01 13:30:55;;;;;;;;;;;9.30;99.90;;;;;;5090577;28;20028;-93
2021/12/01 13:33:58;;;;;;;;;;;;;;;;;;;;;
2021/12/01 13:37:02;;;;;;;;;;;;;;;;;;;;;
2021/12/01 13:39:48;;;;;;;19.75;4.57;;;9.40;99.90;;;;;;5079330;28;20035;-92
2021/12/01 13:42:23;;;;;;;20.08;2.95;;;9.30;99.90;;;;;;5069318;28;20058;-91
2021/12/01 13:44:51;;;;;;;25.60;3.50;;;9.20;99.90;;;;;;5077166;28;20131;-91
2021/12/01 13:47:19;;;;;;;32.28;4.38;;;9.10;99.90;;;;;;5081315;28;20021;-90
2021/12/01 13:49:54;;;;;;;17.23;2.90;;;9.20;99.90;;;;;;5080563;28;20331;-91
2021/12/01 13:52:38;;;;;;;24.27;3.50;;;8.90;99.90;;;;;;5076212;28;20063;-93
2021/12/01 13:55:16;;;;;;;20.63;3.58;;;8.80;99.90;;;;;;5079042;28;20021;-92
2021/12/01 13:58:11;;;;;;;17.27;3.00;;;8.70;99.90;;;;;;5080076;28;20028;-90
2021/12/01 14:00:59;;;;;;;16.00;2.58;;;8.70;99.90;;;;;;5073186;28;20028;-91
2021/12/01 14:03:25;;;;;;;30.60;10.23;;;8.70;99.90;;;;;;5082105;28;20028;-89
2021/12/01 14:06:17;;;;;;;14.60;2.70;;;8.50;99.90;;;;;;5079382;28;20366;-91
2021/12/01 14:09:20;;;;;;;;;;;;;;;;;;;;;
2021/12/01 14:12:58;;;;;;;16.58;2.83;;;8.50;99.90;;;;;;5093271;28;20032;-91
2021/12/01 14:15:50;;;;;;;;;;;;;;;;;;;;;
2021/12/01 14:18:29;;;;;;;;;;;;;;;;;;;;;
2021/12/01 14:21:22;;;;;;;27.70;4.32;;;8.90;99.90;;;;;;5073422;28;20473;-92
2021/12/01 14:27:24;;;;;;;24.02;4.38;;;9.10;99.90;;;;;;5079273;28;20032;-90
2021/12/01 14:30:18;;;;;;;22.02;3.97;;;9.30;99.90;;;;;;5091835;28;20031;-92
2021/12/01 14:36:05;;;;;;;26.08;3.83;;;9.40;99.90;;;;;;4989851;28;20065;-91
2021/12/01 14:38:33;;;;;;;22.58;3.75;;;9.40;99.90;;;;;;5021831;28;20179;-90
2021/12/01 14:41:09;;;;;;;30.05;4.30;;;9.40;99.90;;;;;;5064273;28;20393;-92
2021/12/01 14:43:59;;;;;;;;;;;;;;;;;;;;;
2021/12/01 14:46:48;;;;;;;;;;;;;;;;;;;;;
2021/12/01 14:49:19;;;;;;;41.05;9.07;;;9.50;99.90;;;;;;5080138;28;20028;-93
2021/12/01 14:52:23;;;;;;;;;;;;;;;;;;;;;
2021/12/01 14:58:56;;;;;;;;;;;;;;;;;;;;;
2021/12/01 15:01:44;;;;;;;29.88;3.63;;;9.90;99.90;;;;;;4957663;28;20049;-93
2021/12/01 15:05:08;;;;;;;21.25;4.07;;;9.90;99.90;;;;;;5045842;28;20035;-93
2021/12/01 15:08:04;;;;;;;;;;;;;;;;;;;;;
2021/12/01 15:11:16;;;;;;;;;;;;;;;;;;;;;
2021/12/01 15:14:37;;;;;;;;;;;;;;;;;;;;;